Time;durP1;ratioP1;P1;durP2;ratioP2;P2;SDS_P1;SDS_P2;PMS_P1;PMS_P2;Temp;Humidity;BMP_temperature;BMP_pressure;BME280_temperature;BME280_humidity;BME280_pressure;Samples;Min_cycle;Max_cycle;Signal;HPM_P1;HPM_P2
2022/09/19 00:00:23;;;;;;;;;;;23.20;45.40;;;;;;6054272;29;19931;-40
2022/09/19 00:03:24;;;;;;;;;;;23.30;45.50;;;;;;6060727;29;20245;-41
2022/09/19 00:06:27;;;;;;;;;;;23.70;45.70;;;;;;6058152;29;19942;-41
2022/09/19 00:09:29;;;;;;;;;;;23.30;45.50;;;;;;6058497;29;19927;-40
2022/09/19 00:12:31;;;;;;;;;;;23.50;45.60;;;;;;6066491;29;20946;-42
2022/09/19 00:15:33;;;;;;;;;;;23.40;45.50;;;;;;6062531;29;19934;-42
2022/09/19 00:18:35;;;;;;;;;;;23.10;45.40;;;;;;6065355;29;19971;-40
2022/09/19 00:21:38;;;;;;;;;;;23.30;45.50;;;;;;6065136;29;19926;-40
2022/09/19 00:24:49;;;;;;;;;;;23.10;45.40;;;;;;6064594;29;19930;-42
2022/09/19 00:27:50;;;;;;;;;;;23.00;45.50;;;;;;6064728;29;19942;-40
2022/09/19 00:30:51;;;;;;;;;;;23.20;45.70;;;;;;6060605;29;19934;-40
2022/09/19 00:33:56;;;;;;;;;;;23.60;45.80;;;;;;6064509;29;20630;-40
2022/09/19 00:36:58;;;;;;;;;;;23.90;45.90;;;;;;6057567;29;20796;-40
2022/09/19 00:40:00;;;;;;;;;;;23.20;45.60;;;;;;6060305;29;20302;-40
2022/09/19 00:43:02;;;;;;;;;;;23.20;45.60;;;;;;6057338;29;19935;-40
2022/09/19 00:46:03;;;;;;;;;;;23.50;45.90;;;;;;6065962;29;19966;-40
2022/09/19 00:49:07;;;;;;;;;;;23.00;45.60;;;;;;6069854;29;20395;-41
2022/09/19 00:52:12;;;;;;;;;;;23.30;45.70;;;;;;6055975;29;20139;-39
2022/09/19 00:55:14;;;;;;;;;;;23.10;45.60;;;;;;6053462;29;20183;-40
2022/09/19 00:58:20;;;;;;;;;;;23.20;45.70;;;;;;6057680;29;19978;-40
2022/09/19 01:01:21;;;;;;;;;;;23.00;45.60;;;;;;6059048;29;19931;-40
2022/09/19 01:04:23;;;;;;;;;;;22.90;45.60;;;;;;6052969;29;20225;-40
2022/09/19 01:07:30;;;;;;;;;;;23.30;45.80;;;;;;6058510;29;20891;-42
2022/09/19 01:10:37;;;;;;;;;;;23.30;45.80;;;;;;6062199;29;20188;-41
2022/09/19 01:13:43;;;;;;;;;;;23.10;45.70;;;;;;6063102;29;20363;-40
2022/09/19 01:16:49;;;;;;;;;;;23.60;46.00;;;;;;6058929;29;20033;-41
2022/09/19 01:20:06;;;;;;;;;;;23.30;45.80;;;;;;6061572;29;20649;-40
2022/09/19 01:23:16;;;;;;;;;;;23.00;45.70;;;;;;6060187;29;20729;-40
2022/09/19 01:26:24;;;;;;;;;;;23.00;45.70;;;;;;6064889;29;20158;-40
2022/09/19 01:29:28;;;;;;;;;;;23.10;45.70;;;;;;6061881;29;21105;-41
2022/09/19 01:32:33;;;;;;;;;;;22.90;45.70;;;;;;6059981;29;20212;-40
2022/09/19 01:35:39;;;;;;;;;;;22.90;45.70;;;;;;6046039;29;20511;-40
2022/09/19 01:38:41;;;;;;;;;;;23.50;45.90;;;;;;6055327;29;20348;-40
2022/09/19 01:41:46;;;;;;;;;;;22.80;45.70;;;;;;6052184;29;20323;-40
2022/09/19 01:44:50;;;;;;;;;;;23.00;45.80;;;;;;6032507;29;20475;-40
2022/09/19 01:47:57;;;;;;;;;;;23.30;46.00;;;;;;6053271;29;20146;-41
2022/09/19 01:51:06;;;;;;;;;;;22.90;45.80;;;;;;6062392;28;19950;-43
2022/09/19 01:54:21;;;;;;;;;;;23.00;45.90;;;;;;6039642;29;20002;-40
2022/09/19 01:57:31;;;;;;;;;;;23.10;45.90;;;;;;6056419;29;20693;-42
2022/09/19 02:00:38;;;;;;;;;;;23.10;45.90;;;;;;6062781;29;20148;-40
2022/09/19 02:03:46;;;;;;;;;;;22.80;45.80;;;;;;6056911;29;19934;-41
2022/09/19 02:06:54;;;;;;;;;;;22.90;45.80;;;;;;6053370;29;20332;-40
2022/09/19 02:09:57;;;;;;;;;;;23.30;46.10;;;;;;6052839;29;20256;-42
2022/09/19 02:13:03;;;;;;;;;;;22.80;45.80;;;;;;6057568;29;19935;-40
2022/09/19 02:16:25;;;;;;;;;;;23.00;45.90;;;;;;6056168;29;19931;-40
2022/09/19 02:19:33;;;;;;;;;;;22.80;45.90;;;;;;6040300;29;20128;-40
2022/09/19 02:22:41;;;;;;;;;;;22.80;45.90;;;;;;6060426;29;20606;-40
2022/09/19 02:25:44;;;;;;;;;;;22.90;45.90;;;;;;6057353;29;20053;-40
2022/09/19 02:28:48;;;;;;;;;;;22.90;45.90;;;;;;6058607;29;19937;-40
2022/09/19 02:31:55;;;;;;;;;;;23.10;46.10;;;;;;6038626;29;20618;-40
2022/09/19 02:34:59;;;;;;;;;;;22.80;46.00;;;;;;6059689;29;19931;-41
2022/09/19 02:38:07;;;;;;;;;;;23.00;46.10;;;;;;6058819;29;19931;-40
2022/09/19 02:41:12;;;;;;;;;;;22.90;45.90;;;;;;6043816;29;20374;-41
2022/09/19 02:44:19;;;;;;;;;;;23.10;46.10;;;;;;6040135;29;20038;-42
2022/09/19 02:47:25;;;;;;;;;;;22.80;45.90;;;;;;6057962;29;20220;-40
2022/09/19 02:50:33;;;;;;;;;;;22.70;45.90;;;;;;6056318;28;19931;-40
2022/09/19 02:53:38;;;;;;;;;;;22.70;45.90;;;;;;6060546;29;20331;-40
2022/09/19 02:56:48;;;;;;;;;;;22.80;46.00;;;;;;6059773;29;19942;-40
2022/09/19 02:59:50;;;;;;;;;;;22.60;45.90;;;;;;6059795;29;19938;-42
2022/09/19 03:02:56;;;;;;;;;;;23.10;46.20;;;;;;6061858;29;20197;-40
2022/09/19 03:06:09;;;;;;;;;;;22.60;46.00;;;;;;6038991;29;20441;-42
2022/09/19 03:09:15;;;;;;;;;;;23.10;46.20;;;;;;6064974;29;20803;-40
2022/09/19 03:12:21;;;;;;;;;;;23.10;46.20;;;;;;6063152;29;20091;-40
2022/09/19 03:15:24;;;;;;;;;;;23.10;46.20;;;;;;6055935;29;19943;-40
2022/09/19 03:18:27;;;;;;;;;;;22.60;45.90;;;;;;6059906;29;19935;-40
2022/09/19 03:21:29;;;;;;;;;;;22.80;46.00;;;;;;6058688;29;20167;-42
2022/09/19 03:24:31;;;;;;;;;;;23.00;46.20;;;;;;6044314;29;20195;-40
2022/09/19 03:27:32;;;;;;;;;;;23.10;46.30;;;;;;6051928;29;19939;-40
2022/09/19 03:30:34;;;;;;;;;;;22.60;46.10;;;;;;6057703;29;20363;-39
2022/09/19 03:33:36;;;;;;;;;;;22.80;46.20;;;;;;6057454;29;20107;-40
2022/09/19 03:36:39;;;;;;;;;;;23.30;46.50;;;;;;6062313;29;20489;-43
2022/09/19 03:39:41;;;;;;;;;;;22.70;46.10;;;;;;6057167;29;20292;-40
2022/09/19 03:42:52;;;;;;;;;;;23.00;46.30;;;;;;6060749;29;20754;-40
2022/09/19 03:45:56;;;;;;;;;;;23.00;46.30;;;;;;6061364;29;19943;-40
2022/09/19 03:49:00;;;;;;;;;;;22.70;46.20;;;;;;6065762;28;20806;-41
2022/09/19 03:52:01;;;;;;;;;;;22.80;46.20;;;;;;6049289;29;19945;-39
2022/09/19 03:55:06;;;;;;;;;;;22.50;46.00;;;;;;6063018;29;20277;-40
2022/09/19 03:58:14;;;;;;;;;;;22.60;46.10;;;;;;6067865;29;20751;-40
2022/09/19 04:01:16;;;;;;;;;;;22.80;46.30;;;;;;6062896;29;20173;-40
2022/09/19 04:04:25;;;;;;;;;;;22.50;46.20;;;;;;6062117;29;20302;-41
2022/09/19 04:07:30;;;;;;;;;;;22.50;46.10;;;;;;6058473;29;20014;-40
2022/09/19 04:10:31;;;;;;;;;;;22.60;46.30;;;;;;6046786;29;20255;-40
2022/09/19 04:13:33;;;;;;;;;;;23.10;46.50;;;;;;6053781;29;19935;-39
2022/09/19 04:16:41;;;;;;;;;;;22.70;46.30;;;;;;6058919;29;19931;-40
2022/09/19 04:19:43;;;;;;;;;;;22.50;46.20;;;;;;6056358;29;19930;-42
2022/09/19 04:23:04;;;;;;;;;;;22.60;46.30;;;;;;6058363;29;20003;-40
2022/09/19 04:26:13;;;;;;;;;;;22.50;46.30;;;;;;6048899;29;19931;-40
2022/09/19 04:29:18;;;;;;;;;;;22.70;46.20;;;;;;6050661;29;19941;-40
2022/09/19 04:32:20;;;;;;;;;;;22.40;46.20;;;;;;6039537;29;20635;-43
2022/09/19 04:35:26;;;;;;;;;;;22.50;46.30;;;;;;6054046;29;19959;-40
2022/09/19 04:38:30;;;;;;;;;;;22.40;46.20;;;;;;6052391;29;20088;-40
2022/09/19 04:41:34;;;;;;;;;;;22.90;46.40;;;;;;6052105;29;20668;-41
2022/09/19 04:44:36;;;;;;;;;;;23.00;46.50;;;;;;6052732;29;19942;-40
2022/09/19 04:47:46;;;;;;;;;;;22.80;46.50;;;;;;6051527;29;20033;-40
2022/09/19 04:50:50;;;;;;;;;;;22.30;46.30;;;;;;6055935;28;20146;-39
2022/09/19 04:53:52;;;;;;;;;;;22.80;46.50;;;;;;6037260;29;20359;-40
2022/09/19 04:56:56;;;;;;;;;;;22.50;46.30;;;;;;6051147;29;20810;-41
2022/09/19 04:59:58;;;;;;;;;;;22.50;46.30;;;;;;6053739;29;19935;-39
2022/09/19 05:03:00;;;;;;;;;;;23.00;46.50;;;;;;6057615;29;19930;-40
2022/09/19 05:06:04;;;;;;;;;;;22.50;46.20;;;;;;6054778;29;20022;-41
2022/09/19 05:09:08;;;;;;;;;;;22.80;46.60;;;;;;6059665;29;20001;-40
2022/09/19 05:12:19;;;;;;;;;;;22.50;46.30;;;;;;6055575;29;21032;-40
2022/09/19 05:15:24;;;;;;;;;;;22.80;46.50;;;;;;6064664;29;19935;-41
2022/09/19 05:18:28;;;;;;;;;;;22.60;46.30;;;;;;6063410;29;20846;-40
2022/09/19 05:21:32;;;;;;;;;;;22.70;46.40;;;;;;6052562;29;19937;-40
2022/09/19 05:24:37;;;;;;;;;;;22.30;46.20;;;;;;6061583;29;19982;-40
2022/09/19 05:27:39;;;;;;;;;;;22.30;46.30;;;;;;6058773;29;20928;-41
2022/09/19 05:30:46;;;;;;;;;;;22.40;46.40;;;;;;6059513;29;19927;-41
2022/09/19 05:33:47;;;;;;;;;;;22.20;46.20;;;;;;6038070;29;19939;-41
2022/09/19 05:36:53;;;;;;;;;;;22.20;46.30;;;;;;6048453;29;19934;-40
2022/09/19 05:40:08;;;;;;;;;;;22.80;46.60;;;;;;6046845;29;19977;-40
2022/09/19 05:43:24;;;;;;;;;;;22.30;46.20;;;;;;6052742;29;20837;-41
2022/09/19 05:46:25;;;;;;;;;;;22.50;46.40;;;;;;6054332;29;20300;-40
2022/09/19 05:49:32;;;;;;;;;;;22.40;46.50;;;;;;6054739;28;19942;-42
2022/09/19 05:55:54;;;;;;;;;;;22.20;46.30;;;;;;6047615;29;19934;-40
2022/09/19 05:59:05;;;;;;;;;;;22.50;46.50;;;;;;6043943;29;20900;-39
2022/09/19 06:02:10;;;;;;;;;;;22.40;46.30;;;;;;6037206;28;19935;-42
2022/09/19 06:05:19;;;;;;;;;;;22.80;46.70;;;;;;6038875;29;19935;-41
2022/09/19 06:08:22;;;;;;;;;;;22.50;46.50;;;;;;6039487;29;20875;-40
2022/09/19 06:11:26;;;;;;;;;;;22.80;46.60;;;;;;6037047;29;20960;-40
2022/09/19 06:14:32;;;;;;;;;;;22.60;46.50;;;;;;6047109;29;19939;-39
2022/09/19 06:17:38;;;;;;;;;;;22.60;46.90;;;;;;6020230;29;19935;-41
2022/09/19 06:20:53;;;;;;;;;;;22.60;46.30;;;;;;6031139;29;19934;-42
2022/09/19 06:24:07;;;;;;;;;;;22.90;46.50;;;;;;6015181;29;20902;-41
2022/09/19 06:27:09;;;;;;;;;;;22.80;46.30;;;;;;6013998;29;19931;-41
2022/09/19 06:30:17;;;;;;;;;;;22.80;46.30;;;;;;6020031;29;19941;-44
2022/09/19 06:33:41;;;;;;;;;;;22.80;46.20;;;;;;5980644;29;19935;-41
2022/09/19 06:36:48;;;;;;;;;;;22.90;46.00;;;;;;5978354;28;20565;-41
2022/09/19 06:39:50;;;;;;;;;;;22.90;46.10;;;;;;5966547;29;20268;-39
2022/09/19 06:43:08;;;;;;;;;;;22.70;45.90;;;;;;5965027;29;20084;-40
2022/09/19 06:46:24;;;;;;;;;;;22.70;45.80;;;;;;5911435;29;23117;-39
2022/09/19 06:49:44;;;;;;;;;;;23.10;46.00;;;;;;5948772;29;19935;-39
2022/09/19 06:52:59;;;;;;;;;;;22.90;46.40;;;;;;5933257;29;19941;-39
2022/09/19 06:56:01;;;;;;;;;;;23.00;45.80;;;;;;5923521;29;19945;-41
2022/09/19 06:59:03;;;;;;;;;;;22.80;45.60;;;;;;5923020;28;20860;-40
2022/09/19 07:02:06;;;;;;;;;;;23.10;45.70;;;;;;5873423;29;20030;-39
2022/09/19 07:05:12;;;;;;;;;;;23.00;45.60;;;;;;5864028;29;21709;-43
2022/09/19 07:08:24;;;;;;;;;;;23.20;45.50;;;;;;5846117;29;19934;-39
2022/09/19 07:11:29;;;;;;;;;;;22.90;45.50;;;;;;5837412;29;21853;-39
2022/09/19 07:14:31;;;;;;;;;;;23.60;45.70;;;;;;5847564;29;19934;-38
2022/09/19 07:17:35;;;;;;;;;;;23.20;45.50;;;;;;5786798;29;19942;-37
2022/09/19 07:20:37;;;;;;;;;;;23.20;45.70;;;;;;5787062;29;20003;-38
2022/09/19 07:23:54;;;;;;;;;;;23.20;45.70;;;;;;5821804;29;19941;-37
2022/09/19 07:27:07;;;;;;;;;;;23.30;45.60;;;;;;5781585;29;19952;-37
2022/09/19 07:30:12;;;;;;;;;;;23.20;45.50;;;;;;5777200;29;19935;-38
2022/09/19 07:33:15;;;;;;;;;;;23.30;45.60;;;;;;5771970;29;19994;-40
2022/09/19 07:36:21;;;;;;;;;;;22.90;45.30;;;;;;5758907;29;22103;-39
2022/09/19 07:39:22;;;;;;;;;;;22.90;44.90;;;;;;5763743;29;19934;-36
2022/09/19 07:42:44;;;;;;;;;;;22.90;45.30;;;;;;5792082;28;20050;-39
2022/09/19 07:46:04;;;;;;;;;;;23.30;45.40;;;;;;5716173;29;20781;-39
2022/09/19 07:49:15;;;;;;;;;;;23.00;45.30;;;;;;5766325;28;21796;-39
2022/09/19 07:52:26;;;;;;;;;;;23.50;45.40;;;;;;5789375;29;19971;-41
2022/09/19 07:55:29;;;;;;;;;;;23.10;45.30;;;;;;5771650;29;21060;-39
2022/09/19 07:58:31;;;;;;;;;;;23.80;45.50;;;;;;5771484;29;21491;-39
2022/09/19 08:01:36;;;;;;;;;;;23.30;45.20;;;;;;5749344;29;19974;-41
2022/09/19 08:04:45;;;;;;;;;;;23.30;45.70;;;;;;5757027;29;20668;-39
2022/09/19 08:07:49;;;;;;;;;;;23.80;45.50;;;;;;5734156;29;19977;-39
2022/09/19 08:10:57;;;;;;;;;;;23.50;45.00;;;;;;5837709;29;19934;-39
2022/09/19 08:14:04;;;;;;;;;;;23.50;45.30;;;;;;5832344;29;20064;-39
2022/09/19 08:17:06;;;;;;;;;;;23.60;45.90;;;;;;5842601;29;19941;-39
2022/09/19 08:20:13;;;;;;;;;;;23.50;45.10;;;;;;5835738;29;20069;-40
2022/09/19 08:23:19;;;;;;;;;;;23.60;44.90;;;;;;5826400;29;19934;-40
2022/09/19 08:26:24;;;;;;;;;;;23.40;45.10;;;;;;5810774;29;19942;-39
2022/09/19 08:29:27;;;;;;;;;;;23.30;45.00;;;;;;5828348;29;19941;-39
2022/09/19 08:32:35;;;;;;;;;;;23.40;45.00;;;;;;5823716;29;19957;-40
2022/09/19 08:35:41;;;;;;;;;;;23.60;45.30;;;;;;5814612;29;20061;-39
2022/09/19 08:38:51;;;;;;;;;;;23.30;44.90;;;;;;5809988;29;20053;-39
2022/09/19 08:42:00;;;;;;;;;;;23.30;45.00;;;;;;5813506;29;19935;-39
2022/09/19 08:45:06;;;;;;;;;;;23.70;45.20;;;;;;5785640;29;20014;-39
2022/09/19 08:48:10;;;;;;;;;;;23.60;45.10;;;;;;5760891;29;24381;-39
2022/09/19 08:51:15;;;;;;;;;;;23.70;45.10;;;;;;5768758;29;19935;-39
2022/09/19 08:54:21;;;;;;;;;;;23.50;45.00;;;;;;5753575;29;29539;-38
2022/09/19 08:57:26;;;;;;;;;;;23.90;45.20;;;;;;5752815;29;20971;-39
2022/09/19 09:00:37;;;;;;;;;;;23.80;45.10;;;;;;5748900;29;21005;-39
2022/09/19 09:03:49;;;;;;;;;;;23.70;45.70;;;;;;5751273;29;19939;-40
2022/09/19 09:06:57;;;;;;;;;;;23.70;45.10;;;;;;5797748;29;20502;-40
2022/09/19 09:10:04;;;;;;;;;;;24.00;45.30;;;;;;5779750;29;30724;-40
2022/09/19 09:13:16;;;;;;;;;;;23.70;45.10;;;;;;5786814;28;34169;-39
2022/09/19 09:16:24;;;;;;;;;;;23.40;44.90;;;;;;5817972;29;22377;-39
2022/09/19 09:19:33;;;;;;;;;;;23.80;45.20;;;;;;5804513;29;24800;-39
2022/09/19 09:22:38;;;;;;;;;;;23.90;45.20;;;;;;5794330;29;19983;-40
2022/09/19 09:26:00;;;;;;;;;;;23.70;45.10;;;;;;5802761;29;23310;-40
2022/09/19 09:29:11;;;;;;;;;;;23.90;45.20;;;;;;5788427;29;20814;-39
2022/09/19 09:32:33;;;;;;;;;;;23.90;45.20;;;;;;5802123;29;19943;-40
2022/09/19 09:35:44;;;;;;;;;;;23.40;45.00;;;;;;5778742;29;21382;-40
2022/09/19 09:38:52;;;;;;;;;;;24.10;45.40;;;;;;5788406;29;19942;-40
2022/09/19 09:41:59;;;;;;;;;;;23.70;45.20;;;;;;5785226;29;19986;-38
2022/09/19 09:45:03;;;;;;;;;;;23.80;45.20;;;;;;5788079;29;25108;-41
2022/09/19 09:48:14;;;;;;;;;;;23.70;45.20;;;;;;5789509;29;22264;-40
2022/09/19 09:51:22;;;;;;;;;;;23.90;45.20;;;;;;5816541;29;19935;-38
2022/09/19 09:57:53;;;;;;;;;;;23.90;45.10;;;;;;5790068;29;20073;-38
2022/09/19 10:04:30;;;;;;;;;;;23.90;45.20;;;;;;5839273;29;19934;-39
2022/09/19 10:07:42;;;;;;;;;;;23.80;45.00;;;;;;5811733;29;20045;-43
2022/09/19 10:10:53;;;;;;;;;;;24.00;45.10;;;;;;5837079;29;20063;-41
2022/09/19 10:14:01;;;;;;;;;;;24.00;45.10;;;;;;5866883;29;20473;-40
2022/09/19 10:17:06;;;;;;;;;;;24.10;45.10;;;;;;5869431;29;19935;-39
2022/09/19 10:20:18;;;;;;;;;;;23.60;44.70;;;;;;5855128;29;19998;-37
2022/09/19 10:23:23;;;;;;;;;;;24.10;45.00;;;;;;5835537;29;19942;-39
2022/09/19 10:26:27;;;;;;;;;;;23.90;44.90;;;;;;5869542;29;19934;-39
2022/09/19 10:29:31;;;;;;;;;;;23.90;44.80;;;;;;5870616;29;19934;-39
2022/09/19 10:32:39;;;;;;;;;;;24.10;45.00;;;;;;5894395;29;19935;-40
2022/09/19 10:35:45;;;;;;;;;;;24.10;44.90;;;;;;5882830;29;19934;-39
2022/09/19 10:38:54;;;;;;;;;;;24.00;44.90;;;;;;5860136;28;19981;-39
2022/09/19 10:41:57;;;;;;;;;;;23.70;44.60;;;;;;5894520;28;20387;-39
2022/09/19 10:45:00;;;;;;;;;;;24.10;44.90;;;;;;5918558;29;19935;-39
2022/09/19 10:48:09;;;;;;;;;;;23.80;44.70;;;;;;5926307;28;19990;-39
2022/09/19 10:51:13;;;;;;;;;;;23.90;44.70;;;;;;5943188;29;22186;-41
2022/09/19 10:54:21;;;;;;;;;;;24.10;44.80;;;;;;5892787;29;21131;-39
2022/09/19 10:57:37;;;;;;;;;;;24.10;44.80;;;;;;5922132;29;19939;-40
2022/09/19 11:00:47;;;;;;;;;;;24.00;44.80;;;;;;5892052;29;19935;-39
2022/09/19 11:04:04;;;;;;;;;;;24.20;44.90;;;;;;5841178;29;19990;-40
2022/09/19 11:07:17;;;;;;;;;;;24.10;44.80;;;;;;5891465;29;19935;-39
2022/09/19 11:10:33;;;;;;;;;;;24.00;44.60;;;;;;5893994;29;19943;-38
2022/09/19 11:13:44;;;;;;;;;;;24.10;44.80;;;;;;5875598;29;22456;-39
2022/09/19 11:16:58;;;;;;;;;;;24.20;44.80;;;;;;5882737;29;22586;-39
2022/09/19 11:20:17;;;;;;;;;;;24.20;44.70;;;;;;5901002;29;19934;-41
2022/09/19 11:33:57;;;;;;;0.80;0.40;;;24.70;59.20;;;;;;6203243;27;20477;-63
2022/09/19 11:37:45;;;;;;;1.65;0.60;;;24.70;44.10;;;;;;6172895;27;20042;-61
2022/09/19 11:41:00;;;;;;;1.37;0.60;;;24.30;43.70;;;;;;6195194;27;20046;-58
2022/09/19 11:44:23;;;;;;;3.22;0.77;;;24.30;43.80;;;;;;6179688;27;20293;-60
2022/09/19 11:47:59;;;;;;;1.42;0.60;;;24.30;43.70;;;;;;6153686;27;20146;-61
2022/09/19 11:51:17;;;;;;;1.80;0.50;;;24.20;43.70;;;;;;6206369;27;20045;-59
2022/09/19 11:54:44;;;;;;;0.80;0.40;;;24.20;43.50;;;;;;6237617;27;20045;-61
2022/09/19 11:57:56;;;;;;;1.33;0.60;;;24.20;43.40;;;;;;6193454;27;22284;-57
2022/09/19 12:02:56;;;;;;;0.95;0.45;;;24.60;54.30;;;;;;6049142;27;23681;-59
2022/09/19 12:06:10;;;;;;;1.42;0.50;;;24.20;43.10;;;;;;6021409;27;20126;-58
2022/09/19 12:09:17;;;;;;;0.68;0.40;;;24.10;42.80;;;;;;6061192;27;20042;-60
2022/09/19 12:12:24;;;;;;;1.92;0.40;;;24.00;42.60;;;;;;6064015;27;20122;-59
2022/09/19 12:15:45;;;;;;;0.95;0.40;;;24.30;42.50;;;;;;6048189;27;22385;-60
2022/09/19 12:18:55;;;;;;;0.85;0.47;;;24.30;42.20;;;;;;6069514;27;20177;-51
2022/09/19 12:22:03;;;;;;;1.55;0.40;;;24.30;42.10;;;;;;6080962;27;20049;-56
2022/09/19 12:25:17;;;;;;;0.57;0.30;;;24.30;41.90;;;;;;6051658;27;20041;-56
2022/09/19 12:28:22;;;;;;;1.65;0.40;;;24.40;41.70;;;;;;6121440;27;20627;-53
2022/09/19 12:31:28;;;;;;;1.48;0.30;;;24.30;41.50;;;;;;6045965;27;22291;-52
2022/09/19 12:34:39;;;;;;;0.40;0.30;;;24.30;41.30;;;;;;6012243;27;21998;-52
2022/09/19 12:37:51;;;;;;;1.75;0.32;;;24.30;41.00;;;;;;6039149;27;20038;-57
2022/09/19 12:40:57;;;;;;;0.38;0.38;;;24.30;40.90;;;;;;5977047;27;20046;-54
2022/09/19 12:44:09;;;;;;;0.55;0.30;;;24.30;40.80;;;;;;6019955;27;20050;-57
2022/09/19 12:47:19;;;;;;;0.77;0.32;;;24.00;40.30;;;;;;6014481;27;20215;-57
2022/09/19 12:50:41;;;;;;;0.20;0.20;;;24.30;40.30;;;;;;6000548;27;20563;-52
2022/09/19 12:53:48;;;;;;;0.20;0.20;;;24.20;40.20;;;;;;5952585;27;26030;-57
2022/09/19 12:56:57;;;;;;;0.38;0.20;;;24.20;40.20;;;;;;6016488;27;27718;-55
2022/09/19 12:59:58;;;;;;;0.65;0.25;;;24.30;40.20;;;;;;5982595;27;20059;-46
2022/09/19 13:03:07;;;;;;;1.75;0.40;;;24.30;40.30;;;;;;5963672;27;20345;-49
2022/09/19 13:06:17;;;;;;;0.35;0.20;;;24.30;40.20;;;;;;5954252;27;20038;-51
2022/09/19 13:09:23;;;;;;;1.17;0.20;;;24.30;40.20;;;;;;5999195;27;20053;-51
2022/09/19 13:12:36;;;;;;;0.20;0.20;;;24.30;40.20;;;;;;5976521;27;20042;-49
2022/09/19 13:15:44;;;;;;;0.20;0.20;;;24.20;40.00;;;;;;5992889;27;21359;-50
2022/09/19 13:25:26;;;;;;;0.30;0.30;;;24.30;39.90;;;;;;5971607;27;28566;-50
2022/09/19 13:28:34;;;;;;;0.30;0.30;;;24.40;40.00;;;;;;5974290;27;23156;-52
2022/09/19 13:31:56;;;;;;;0.70;0.35;;;24.40;40.00;;;;;;5914136;27;26442;-53
2022/09/19 13:35:14;;;;;;;0.30;0.20;;;24.40;39.70;;;;;;5923182;27;20427;-51
2022/09/19 13:38:22;;;;;;;0.63;0.30;;;24.50;39.80;;;;;;5936612;27;22580;-49
2022/09/19 13:41:28;;;;;;;0.40;0.20;;;24.20;39.60;;;;;;5986180;27;20591;-49
2022/09/19 13:44:39;;;;;;;0.20;0.20;;;24.40;39.70;;;;;;6006704;27;20209;-51
2022/09/19 13:47:43;;;;;;;0.40;0.20;;;24.50;39.70;;;;;;6005565;27;20039;-50
2022/09/19 13:50:54;;;;;;;0.50;0.40;;;23.80;39.30;;;;;;6048467;27;20035;-53
2022/09/19 13:54:21;;;;;;;0.63;0.30;;;24.50;39.60;;;;;;6024521;27;20042;-48
2022/09/19 13:57:28;;;;;;;1.20;0.30;;;24.50;39.70;;;;;;6047263;27;30528;-48
2022/09/19 14:00:37;;;;;;;0.20;0.20;;;24.30;39.50;;;;;;6013572;27;20050;-55
2022/09/19 14:03:41;;;;;;;1.10;0.30;;;24.50;39.60;;;;;;5922123;27;20046;-54
2022/09/19 14:06:44;;;;;;;0.50;0.28;;;24.50;39.50;;;;;;5963808;27;31213;-48
2022/09/19 14:10:18;;;;;;;0.20;0.20;;;24.40;39.40;;;;;;6006484;27;21442;-53
2022/09/19 14:13:37;;;;;;;1.38;0.20;;;24.70;39.40;;;;;;6042102;27;20038;-50
2022/09/19 14:16:38;;;;;;;0.32;0.32;;;24.40;39.10;;;;;;6005867;27;21155;-48
2022/09/19 14:19:44;;;;;;;1.45;0.20;;;24.50;39.30;;;;;;6079585;27;29642;-49
2022/09/19 14:22:46;;;;;;;0.32;0.30;;;24.40;39.10;;;;;;6004914;27;29410;-49
2022/09/19 14:25:58;;;;;;;0.45;0.28;;;24.50;39.10;;;;;;5979667;27;20575;-50
2022/09/19 14:29:14;;;;;;;0.95;0.20;;;24.30;39.00;;;;;;5998979;27;20035;-52
2022/09/19 14:32:30;;;;;;;0.20;0.20;;;24.30;38.80;;;;;;5995007;27;31548;-50
2022/09/19 14:35:34;;;;;;;0.43;0.30;;;24.60;38.90;;;;;;5998151;27;20176;-53
2022/09/19 14:39:13;;;;;;;0.20;0.20;;;24.50;38.90;;;;;;5984904;27;20161;-50
2022/09/19 14:42:35;;;;;;;0.63;0.20;;;24.60;38.90;;;;;;5972585;27;20039;-50
2022/09/19 14:45:56;;;;;;;0.30;0.20;;;24.70;38.80;;;;;;6056257;27;21363;-51
2022/09/19 14:49:11;;;;;;;0.70;0.25;;;24.50;51.50;;;;;;6014401;27;20074;-55
2022/09/19 14:52:16;;;;;;;0.35;0.22;;;24.40;38.70;;;;;;6031378;27;20173;-54
2022/09/19 14:55:18;;;;;;;0.20;0.20;;;24.50;38.70;;;;;;6028081;27;20046;-49
2022/09/19 14:58:23;;;;;;;1.40;0.30;;;24.60;38.70;;;;;;6059625;27;29114;-51
2022/09/19 15:01:28;;;;;;;0.20;0.20;;;24.70;38.70;;;;;;6034651;27;27995;-46
2022/09/19 15:04:31;;;;;;;0.40;0.30;;;24.40;38.50;;;;;;5984417;27;20154;-50
2022/09/19 15:07:34;;;;;;;1.65;0.25;;;24.60;38.60;;;;;;6056634;27;20046;-50
2022/09/19 15:10:38;;;;;;;0.17;0.17;;;24.60;38.60;;;;;;6032106;27;20198;-49
2022/09/19 15:13:45;;;;;;;0.70;0.20;;;24.50;38.70;;;;;;6079735;27;20250;-47
2022/09/19 15:16:49;;;;;;;0.15;0.15;;;24.60;38.60;;;;;;6055584;27;32540;-47
2022/09/19 15:19:53;;;;;;;1.02;0.20;;;24.60;38.60;;;;;;6108498;27;21278;-51
2022/09/19 15:22:57;;;;;;;1.45;0.30;;;24.50;38.60;;;;;;6081846;27;20039;-47
2022/09/19 15:26:01;;;;;;;0.28;0.20;;;24.60;38.70;;;;;;6029771;27;20667;-48
2022/09/19 15:29:05;;;;;;;0.20;0.10;;;24.50;38.70;;;;;;6081836;27;21905;-53
2022/09/19 15:32:15;;;;;;;0.20;0.20;;;24.70;38.80;;;;;;6091027;27;20043;-47
2022/09/19 15:35:18;;;;;;;0.35;0.20;;;24.60;38.80;;;;;;6077408;27;20030;-49
2022/09/19 15:38:28;;;;;;;0.40;0.30;;;24.60;38.90;;;;;;6086186;27;22814;-46
2022/09/19 15:41:31;;;;;;;0.30;0.20;;;24.50;38.80;;;;;;6094310;27;20054;-48
2022/09/19 15:44:33;;;;;;;0.30;0.20;;;24.60;38.90;;;;;;6087604;27;20041;-45
2022/09/19 15:47:37;;;;;;;0.38;0.20;;;24.50;38.80;;;;;;6092275;27;20043;-50
2022/09/19 15:50:41;;;;;;;1.17;0.20;;;24.50;38.80;;;;;;6109547;27;22241;-47
2022/09/19 15:53:43;;;;;;;0.20;0.20;;;24.30;38.60;;;;;;6119725;27;24819;-49
2022/09/19 15:56:47;;;;;;;0.20;0.20;;;24.50;38.70;;;;;;6117284;27;23117;-45
2022/09/19 15:59:50;;;;;;;0.35;0.10;;;24.50;38.70;;;;;;6145646;27;20046;-46
2022/09/19 16:02:56;;;;;;;0.30;0.20;;;24.50;38.70;;;;;;6136512;27;20151;-44
2022/09/19 16:08:57;;;;;;;0.95;0.13;;;24.50;39.30;;;;;;6151814;27;20190;-45
2022/09/19 16:09:33;;;;;;;0.20;0.20;;;24.60;38.70;;;;;;6178348;27;20127;-45
2022/09/19 16:12:40;;;;;;;1.13;0.32;;;24.50;38.60;;;;;;6204655;27;20043;-45
2022/09/19 16:15:44;;;;;;;0.35;0.20;;;24.40;38.60;;;;;;6183479;27;20042;-45
2022/09/19 16:18:48;;;;;;;0.30;0.20;;;24.70;38.80;;;;;;6200901;27;20075;-46
2022/09/19 16:21:53;;;;;;;0.20;0.20;;;24.30;38.50;;;;;;6209608;27;20050;-45
2022/09/19 16:25:02;;;;;;;0.55;0.13;;;24.50;38.50;;;;;;6225949;27;20034;-46
2022/09/19 16:28:11;;;;;;;1.25;0.10;;;24.50;38.40;;;;;;6223926;27;20737;-46
2022/09/19 16:31:21;;;;;;;0.60;0.30;;;24.50;38.40;;;;;;6238627;27;20149;-46
2022/09/19 16:34:30;;;;;;;0.10;0.10;;;24.60;38.40;;;;;;6240397;27;20041;-45
2022/09/19 16:37:36;;;;;;;0.13;0.13;;;24.50;38.30;;;;;;6257744;27;20987;-47
2022/09/19 16:40:37;;;;;;;0.20;0.10;;;24.80;38.30;;;;;;6270722;27;20038;-47
2022/09/19 16:43:42;;;;;;;0.20;0.20;;;24.60;38.20;;;;;;6278977;27;20052;-47
2022/09/19 16:46:43;;;;;;;0.47;0.20;;;24.70;38.10;;;;;;6260076;27;20081;-48
2022/09/19 16:49:47;;;;;;;0.32;0.10;;;24.70;38.00;;;;;;6274159;27;20049;-45
2022/09/19 16:52:49;;;;;;;0.20;0.20;;;24.80;38.00;;;;;;6275426;27;21152;-45
2022/09/19 16:55:55;;;;;;;0.20;0.15;;;24.50;37.70;;;;;;6268306;27;20096;-45
2022/09/19 16:58:57;;;;;;;0.35;0.20;;;24.70;37.80;;;;;;6280387;27;20161;-45
2022/09/19 17:01:59;;;;;;;0.10;0.10;;;24.80;37.70;;;;;;6281806;27;20034;-47
2022/09/19 17:05:04;;;;;;;0.10;0.10;;;24.90;37.70;;;;;;6271486;27;20122;-48
2022/09/19 17:08:06;;;;;;;0.25;0.25;;;24.80;37.60;;;;;;6274146;27;20146;-45
2022/09/19 17:11:09;;;;;;;0.22;0.20;;;24.80;37.50;;;;;;6297943;27;20234;-48
2022/09/19 17:14:16;;;;;;;0.28;0.20;;;24.90;37.40;;;;;;6307004;27;20045;-47
2022/09/19 17:17:17;;;;;;;0.20;0.20;;;24.80;37.30;;;;;;6310443;27;20164;-48
2022/09/19 17:20:20;;;;;;;0.10;0.10;;;24.70;37.20;;;;;;6298026;27;20039;-49
2022/09/19 17:23:21;;;;;;;0.35;0.20;;;25.00;37.30;;;;;;6297775;27;20968;-49
2022/09/19 17:26:23;;;;;;;0.20;0.20;;;24.80;37.10;;;;;;6304982;27;21210;-48
2022/09/19 17:29:24;;;;;;;0.20;0.20;;;24.90;37.20;;;;;;6314337;27;20137;-45
2022/09/19 17:32:26;;;;;;;0.20;0.20;;;24.70;37.20;;;;;;6310725;27;20062;-45
2022/09/19 17:35:28;;;;;;;0.20;0.20;;;24.80;37.40;;;;;;6311903;27;20069;-46
2022/09/19 17:38:32;;;;;;;0.15;0.15;;;25.30;37.90;;;;;;6318128;27;20038;-51
2022/09/19 17:41:34;;;;;;;0.20;0.13;;;24.90;37.90;;;;;;6302809;27;20046;-48
2022/09/19 17:44:37;;;;;;;0.20;0.20;;;24.90;38.10;;;;;;6319270;27;20031;-45
2022/09/19 17:47:38;;;;;;;0.20;0.20;;;24.90;38.30;;;;;;6317676;27;20961;-47
2022/09/19 17:50:46;;;;;;;0.20;0.20;;;24.80;38.50;;;;;;6329467;27;20069;-50
2022/09/19 17:53:47;;;;;;;0.20;0.20;;;24.90;38.80;;;;;;6330582;27;20129;-46